Time;durP1;ratioP1;P1;durP2;ratioP2;P2;SDS_P1;SDS_P2;PMS_P1;PMS_P2;Temp;Humidity;BMP_temperature;BMP_pressure;BME280_temperature;BME280_humidity;BME280_pressure;Samples;Min_cycle;Max_cycle;Signal;HPM_P1;HPM_P2
2023/10/12 00:00:42;;;;;;;2.05;1.30;;;18.90;99.90;;;;;;7404932;19;20127;-86
2023/10/12 00:03:12;;;;;;;3.08;1.42;;;18.80;99.90;;;;;;7402925;19;20587;-86
2023/10/12 00:05:39;;;;;;;1.48;1.08;;;18.80;99.90;;;;;;7402425;19;20222;-85
2023/10/12 00:08:10;;;;;;;3.20;1.30;;;18.80;99.90;;;;;;7404695;19;20175;-85
2023/10/12 00:10:44;;;;;;;1.67;1.05;;;18.80;99.90;;;;;;7403590;19;20158;-86
2023/10/12 00:13:13;;;;;;;2.35;1.25;;;18.90;99.90;;;;;;7402044;19;20150;-85
2023/10/12 00:15:45;;;;;;;1.85;1.08;;;18.80;99.90;;;;;;7403896;19;20155;-88
2023/10/12 00:18:14;;;;;;;0.95;0.90;;;18.70;99.90;;;;;;7403338;19;20150;-86
2023/10/12 00:20:43;;;;;;;1.33;0.98;;;18.50;99.90;;;;;;7403542;19;20142;-86
2023/10/12 00:23:09;;;;;;;1.85;1.17;;;18.60;99.90;;;;;;7401057;19;20253;-85
2023/10/12 00:25:45;;;;;;;1.35;1.08;;;18.80;99.90;;;;;;7396813;19;20130;-86
2023/10/12 00:28:13;;;;;;;1.70;0.93;;;18.90;99.90;;;;;;7394602;19;20153;-85
2023/10/12 00:30:41;;;;;;;1.20;0.90;;;18.80;99.90;;;;;;7395261;19;20169;-87
2023/10/12 00:33:08;;;;;;;2.00;1.38;;;18.90;99.90;;;;;;7395386;19;20592;-86
2023/10/12 00:35:37;;;;;;;2.13;1.42;;;18.90;99.90;;;;;;7396479;19;20135;-86
2023/10/12 00:38:16;;;;;;;2.28;1.50;;;18.90;99.90;;;;;;7396713;19;20214;-86
2023/10/12 00:41:04;;;;;;;2.45;1.58;;;18.80;99.90;;;;;;7395920;19;20150;-86
2023/10/12 00:43:36;;;;;;;1.70;1.60;;;18.70;99.90;;;;;;7394613;19;20138;-85
2023/10/12 00:46:33;;;;;;;4.25;1.70;;;18.70;99.90;;;;;;7395604;19;20138;-85
2023/10/12 00:49:20;;;;;;;2.72;1.75;;;18.60;99.90;;;;;;7394789;19;20535;-85
2023/10/12 00:51:53;;;;;;;2.65;1.85;;;18.50;99.90;;;;;;7395510;19;20165;-85
2023/10/12 00:54:28;;;;;;;1.67;1.45;;;18.40;99.90;;;;;;7393879;19;20619;-85
2023/10/12 00:56:56;;;;;;;1.70;1.10;;;18.20;99.90;;;;;;7394824;19;20149;-85
2023/10/12 00:59:22;;;;;;;3.60;1.25;;;18.30;99.90;;;;;;7394619;19;20148;-86
2023/10/12 01:01:49;;;;;;;2.30;1.00;;;18.30;99.90;;;;;;7394866;19;20135;-85
2023/10/12 01:04:16;;;;;;;1.20;1.10;;;18.00;99.90;;;;;;7395873;19;20189;-85
2023/10/12 01:06:44;;;;;;;1.92;1.20;;;18.00;99.90;;;;;;7392187;19;20178;-85
2023/10/12 01:09:18;;;;;;;1.60;1.27;;;18.10;99.90;;;;;;7395717;19;20246;-85
2023/10/12 01:12:00;;;;;;;1.52;1.00;;;18.20;99.90;;;;;;7395536;19;20170;-85
2023/10/12 01:14:28;;;;;;;1.50;0.85;;;18.30;99.90;;;;;;7393806;19;20131;-85
2023/10/12 01:16:57;;;;;;;3.50;1.75;;;18.30;99.90;;;;;;7392346;19;20775;-85
2023/10/12 01:19:30;;;;;;;2.00;1.42;;;18.30;99.90;;;;;;7393901;19;20137;-85
2023/10/12 01:22:05;;;;;;;2.03;1.67;;;18.30;99.90;;;;;;7393416;19;20161;-86
2023/10/12 01:24:30;;;;;;;1.50;1.20;;;17.90;99.90;;;;;;7394897;19;20171;-85
2023/10/12 01:26:57;;;;;;;1.83;1.17;;;18.00;99.90;;;;;;7394647;19;20605;-86
2023/10/12 01:29:25;;;;;;;3.63;1.60;;;18.10;99.90;;;;;;7394477;19;20154;-85
2023/10/12 01:32:21;;;;;;;2.67;1.80;;;17.90;99.90;;;;;;7393486;19;20151;-85
2023/10/12 01:34:53;;;;;;;1.40;1.27;;;17.90;99.90;;;;;;7394274;19;20149;-85
2023/10/12 01:37:26;;;;;;;3.03;1.98;;;18.00;99.90;;;;;;7393991;19;20214;-86
2023/10/12 01:45:06;;;;;;;2.72;1.20;;;18.00;99.90;;;;;;7395047;19;20130;-85
2023/10/12 01:47:37;;;;;;;2.90;2.05;;;18.00;99.90;;;;;;7395781;19;20131;-86
2023/10/12 01:50:06;;;;;;;2.33;1.38;;;18.10;99.90;;;;;;7394550;19;20139;-86
2023/10/12 01:52:36;;;;;;;1.77;1.45;;;18.00;99.90;;;;;;7394799;19;20592;-85
2023/10/12 01:55:15;;;;;;;1.90;1.60;;;17.90;99.90;;;;;;7392588;19;20130;-85
2023/10/12 01:57:47;;;;;;;3.10;1.70;;;17.80;99.90;;;;;;7394124;19;20497;-86
2023/10/12 02:00:15;;;;;;;1.30;1.20;;;18.00;99.90;;;;;;7394073;19;20142;-86
2023/10/12 02:02:51;;;;;;;2.03;1.30;;;17.90;99.90;;;;;;7391757;19;20150;-85
2023/10/12 02:05:24;;;;;;;1.88;1.17;;;17.90;99.90;;;;;;7392462;19;20146;-84
2023/10/12 02:07:52;;;;;;;2.20;1.27;;;17.90;99.90;;;;;;7392625;19;20123;-86
2023/10/12 02:10:18;;;;;;;2.60;1.70;;;17.90;99.90;;;;;;7394300;19;20137;-84
2023/10/12 02:12:46;;;;;;;2.65;1.45;;;17.90;99.90;;;;;;7395293;19;20139;-85
2023/10/12 02:15:15;;;;;;;1.63;1.40;;;18.00;99.90;;;;;;7390402;19;20155;-86
2023/10/12 02:17:49;;;;;;;1.58;1.17;;;18.10;99.90;;;;;;7391789;19;20146;-84
2023/10/12 02:20:15;;;;;;;1.73;1.25;;;18.00;99.90;;;;;;7395394;19;20127;-83
2023/10/12 02:22:41;;;;;;;1.65;1.20;;;18.00;99.90;;;;;;7391746;19;20146;-85
2023/10/12 02:27:49;;;;;;;1.20;0.90;;;17.90;99.90;;;;;;7391672;19;20209;-84
2023/10/12 02:30:18;;;;;;;1.92;1.20;;;17.80;99.90;;;;;;7395473;19;20178;-86
2023/10/12 02:32:48;;;;;;;2.28;1.00;;;17.70;99.90;;;;;;7393868;19;20197;-84
2023/10/12 02:35:19;;;;;;;1.52;1.30;;;17.70;99.90;;;;;;7393520;19;20161;-85
2023/10/12 02:37:46;;;;;;;1.70;1.23;;;17.90;99.90;;;;;;7393294;19;20154;-85
2023/10/12 02:40:12;;;;;;;2.05;1.45;;;18.00;99.90;;;;;;7392607;19;20161;-85
2023/10/12 02:42:41;;;;;;;1.45;1.20;;;17.90;99.90;;;;;;7390159;19;20123;-85
2023/10/12 02:47:42;;;;;;;1.70;1.00;;;17.90;99.90;;;;;;7392900;19;20162;-84
2023/10/12 02:52:37;;;;;;;1.60;1.38;;;18.10;99.90;;;;;;7390558;19;20145;-85
2023/10/12 02:55:34;;;;;;;1.40;1.10;;;18.20;99.90;;;;;;7390831;19;20444;-85
2023/10/12 02:58:06;;;;;;;2.63;1.73;;;18.20;99.90;;;;;;7392451;19;20147;-85
2023/10/12 03:00:43;;;;;;;1.25;1.05;;;18.10;99.90;;;;;;7393596;19;20476;-85
2023/10/12 03:03:23;;;;;;;2.03;1.23;;;18.00;99.90;;;;;;7388635;19;20788;-85
2023/10/12 03:05:51;;;;;;;1.92;1.00;;;18.00;99.90;;;;;;7389744;19;20483;-85
2023/10/12 03:08:17;;;;;;;1.35;1.00;;;17.80;99.90;;;;;;7391259;19;20127;-86
2023/10/12 03:11:10;;;;;;;1.50;1.02;;;17.60;99.90;;;;;;7391005;19;20126;-86
2023/10/12 03:13:39;;;;;;;1.77;1.17;;;17.70;99.90;;;;;;7390205;19;20163;-84
2023/10/12 03:18:42;;;;;;;1.77;1.27;;;17.70;99.90;;;;;;7389744;19;20154;-84
2023/10/12 03:21:11;;;;;;;1.52;1.13;;;17.90;99.90;;;;;;7392198;19;20487;-84
2023/10/12 03:23:39;;;;;;;1.88;1.05;;;17.90;99.90;;;;;;7390635;19;20134;-85
2023/10/12 03:26:24;;;;;;;1.42;1.05;;;18.10;99.90;;;;;;7391457;19;20580;-85
2023/10/12 03:28:51;;;;;;;1.67;1.05;;;18.10;99.90;;;;;;7391405;19;20176;-85
2023/10/12 03:31:23;;;;;;;1.83;0.90;;;18.20;99.90;;;;;;7390697;19;20222;-85
2023/10/12 03:33:55;;;;;;;1.33;1.10;;;18.30;99.90;;;;;;7390827;19;20825;-83
2023/10/12 03:36:23;;;;;;;0.95;0.88;;;18.10;99.90;;;;;;7390509;19;20210;-85
2023/10/12 03:52:39;;;;;;;1.45;1.27;;;18.20;99.90;;;;;;7389845;19;20488;-85
2023/10/12 04:18:40;;;;;;;2.10;1.38;;;18.30;99.90;;;;;;7395339;19;20147;-84
2023/10/12 04:21:07;;;;;;;1.20;1.10;;;18.10;99.90;;;;;;7394799;19;20580;-84
2023/10/12 04:24:27;;;;;;;1.20;0.98;;;18.20;99.90;;;;;;7394954;19;20856;-85
2023/10/12 04:28:58;;;;;;;1.75;1.25;;;18.10;99.90;;;;;;7397745;19;20499;-84
2023/10/12 04:36:43;;;;;;;1.63;1.30;;;18.10;99.90;;;;;;7396959;19;20587;-85
2023/10/12 04:39:27;;;;;;;1.40;1.10;;;18.00;99.90;;;;;;7396085;19;20154;-84
2023/10/12 04:46:59;;;;;;;1.38;1.23;;;17.90;99.90;;;;;;7394172;19;20583;-84
2023/10/12 04:49:53;;;;;;;3.28;1.67;;;17.80;99.90;;;;;;7396512;19;20164;-84
2023/10/12 04:57:37;;;;;;;1.20;1.05;;;17.90;99.90;;;;;;7398352;19;20140;-85
2023/10/12 05:03:22;;;;;;;2.33;1.33;;;17.90;99.90;;;;;;7392536;19;20167;-83
2023/10/12 05:06:08;;;;;;;2.38;1.25;;;17.90;99.90;;;;;;7393696;19;20186;-83
2023/10/12 05:08:35;;;;;;;4.20;1.25;;;17.90;99.90;;;;;;7395209;19;20583;-84
2023/10/12 05:11:06;;;;;;;2.65;1.83;;;17.90;99.90;;;;;;7393080;19;20311;-84
2023/10/12 05:13:33;;;;;;;2.42;1.77;;;17.90;99.90;;;;;;7396042;19;20141;-84
2023/10/12 05:16:06;;;;;;;2.17;1.50;;;17.80;99.90;;;;;;7393282;19;20154;-84
2023/10/12 05:18:33;;;;;;;2.53;1.55;;;17.90;99.90;;;;;;7396270;19;20978;-85
2023/10/12 05:21:04;;;;;;;1.90;1.35;;;17.80;99.90;;;;;;7396254;19;20142;-86
2023/10/12 05:23:30;;;;;;;1.80;1.48;;;17.80;99.90;;;;;;7394869;19;21596;-86
2023/10/12 05:28:27;;;;;;;1.90;1.40;;;17.50;99.90;;;;;;7395058;19;20133;-87
2023/10/12 05:31:09;;;;;;;3.15;1.58;;;17.60;99.90;;;;;;7394073;19;20134;-86
2023/10/12 05:36:05;;;;;;;1.65;1.25;;;17.80;99.90;;;;;;7393083;19;20630;-88
2023/10/12 05:38:35;;;;;;;2.90;1.58;;;17.70;99.90;;;;;;7392309;19;20150;-83
2023/10/12 05:41:09;;;;;;;1.83;1.38;;;17.80;99.90;;;;;;7389688;19;20143;-81
2023/10/12 05:43:37;;;;;;;1.50;1.20;;;17.80;99.90;;;;;;7392018;19;20138;-81
2023/10/12 05:46:29;;;;;;;3.72;1.90;;;17.80;99.90;;;;;;7393690;19;20501;-81
2023/10/12 05:48:52;;;;;;;1.75;1.45;;;17.80;99.90;;;;;;7399000;19;20716;-81
2023/10/12 05:51:24;;;;;;;2.72;1.88;;;17.70;99.90;;;;;;7392785;19;20570;-82
2023/10/12 05:54:06;;;;;;;3.10;1.65;;;17.80;99.90;;;;;;7394829;19;20459;-81
2023/10/12 05:56:35;;;;;;;2.30;1.42;;;17.80;99.90;;;;;;7395156;19;20135;-82
2023/10/12 05:59:01;;;;;;;1.45;1.33;;;17.80;99.90;;;;;;7393669;19;20160;-83
2023/10/12 06:01:34;;;;;;;3.35;1.67;;;17.80;99.90;;;;;;7393873;19;20838;-84
2023/10/12 06:04:00;;;;;;;3.20;2.17;;;17.80;99.90;;;;;;7390938;19;20126;-80
2023/10/12 06:06:26;;;;;;;3.15;1.63;;;17.70;99.90;;;;;;7391296;19;20142;-81
2023/10/12 06:08:54;;;;;;;2.78;1.33;;;17.80;99.90;;;;;;7391834;19;20135;-80
2023/10/12 06:11:26;;;;;;;1.98;1.60;;;17.80;99.90;;;;;;7392857;19;20561;-81
2023/10/12 06:13:53;;;;;;;3.25;1.70;;;17.80;99.90;;;;;;7392958;19;20150;-81
2023/10/12 06:16:20;;;;;;;2.00;1.60;;;17.90;99.90;;;;;;7394747;19;20175;-80
2023/10/12 06:18:47;;;;;;;3.40;1.55;;;18.00;99.90;;;;;;7392033;19;20142;-81
2023/10/12 06:21:19;;;;;;;3.80;2.00;;;18.10;99.90;;;;;;7393018;19;20222;-83
2023/10/12 06:23:48;;;;;;;1.90;1.60;;;18.00;99.90;;;;;;7389776;19;20226;-84
2023/10/12 06:26:28;;;;;;;3.15;2.05;;;18.00;99.90;;;;;;7393228;19;20151;-82
2023/10/12 06:29:01;;;;;;;3.05;2.00;;;17.90;99.90;;;;;;7392403;19;20639;-81
2023/10/12 06:31:30;;;;;;;2.13;1.70;;;17.80;99.90;;;;;;7399081;19;20222;-81
2023/10/12 06:33:59;;;;;;;2.40;1.65;;;17.90;99.90;;;;;;7393072;19;20170;-81
2023/10/12 06:36:37;;;;;;;3.70;1.70;;;17.90;99.90;;;;;;7392477;19;20142;-83
2023/10/12 06:46:53;;;;;;;2.70;1.92;;;18.20;99.90;;;;;;7394337;19;20197;-84
2023/10/12 06:49:29;;;;;;;3.67;1.95;;;18.20;99.90;;;;;;7395193;19;20135;-84
2023/10/12 06:52:04;;;;;;;3.28;1.60;;;18.30;99.90;;;;;;7392579;19;20481;-84
2023/10/12 06:57:29;;;;;;;2.97;2.15;;;18.40;99.90;;;;;;7393745;19;20146;-83
2023/10/12 07:02:28;;;;;;;2.63;1.48;;;18.60;99.90;;;;;;7394804;19;20138;-82
2023/10/12 07:04:58;;;;;;;4.30;1.90;;;18.60;99.90;;;;;;7391302;19;20139;-83
2023/10/12 07:07:29;;;;;;;3.58;2.20;;;18.70;99.90;;;;;;7393235;19;20130;-83
2023/10/12 07:12:52;;;;;;;2.95;1.83;;;18.80;99.90;;;;;;7389096;19;20623;-86
2023/10/12 07:15:23;;;;;;;3.95;2.22;;;18.80;99.90;;;;;;7390834;19;20154;-82
2023/10/12 07:17:53;;;;;;;8.20;6.03;;;18.80;99.90;;;;;;7391426;19;20161;-82
2023/10/12 07:20:27;;;;;;;7.85;3.40;;;19.00;99.90;;;;;;7392332;19;20612;-82
2023/10/12 07:22:55;;;;;;;5.03;3.08;;;19.00;99.90;;;;;;7389428;19;20218;-80
2023/10/12 07:25:26;;;;;;;5.85;3.95;;;19.10;99.90;;;;;;7391081;19;20146;-81
2023/10/12 07:28:16;;;;;;;3.72;3.05;;;19.20;99.90;;;;;;7391645;19;20151;-81
2023/10/12 07:30:43;;;;;;;3.92;2.33;;;19.20;99.90;;;;;;7390352;19;20574;-82
2023/10/12 07:33:09;;;;;;;8.80;3.08;;;19.20;99.90;;;;;;7388135;19;20127;-83
2023/10/12 07:35:38;;;;;;;5.03;2.40;;;19.20;99.90;;;;;;7389231;19;20137;-78
2023/10/12 07:38:12;;;;;;;3.60;1.83;;;19.20;99.90;;;;;;7392421;19;20133;-79
2023/10/12 07:40:56;;;;;;;2.25;1.73;;;19.20;99.90;;;;;;7392462;19;20241;-78
2023/10/12 07:43:24;;;;;;;2.08;1.70;;;19.20;99.90;;;;;;7391870;19;20755;-78
2023/10/12 07:45:50;;;;;;;3.05;2.08;;;19.30;99.90;;;;;;7391795;19;20492;-78
2023/10/12 07:48:31;;;;;;;3.35;2.42;;;19.40;99.90;;;;;;7395275;19;20155;-79
2023/10/12 07:51:24;;;;;;;3.10;1.92;;;19.50;99.90;;;;;;7394348;19;20160;-79
2023/10/12 07:54:00;;;;;;;2.13;1.73;;;19.50;99.90;;;;;;7393423;19;20139;-79
2023/10/12 07:56:40;;;;;;;4.38;2.83;;;19.60;99.90;;;;;;7395739;19;20138;-77
2023/10/12 07:59:13;;;;;;;1.92;1.52;;;19.60;99.90;;;;;;7393407;19;20134;-77
2023/10/12 08:01:39;;;;;;;2.15;1.30;;;19.60;99.90;;;;;;7392764;19;20623;-78
2023/10/12 08:07:09;;;;;;;5.20;3.10;;;19.60;99.90;;;;;;7388944;19;20178;-79
2023/10/12 08:09:47;;;;;;;5.43;2.47;;;19.70;99.90;;;;;;7396412;19;20135;-79
2023/10/12 08:12:25;;;;;;;1.92;1.33;;;19.70;99.90;;;;;;7392952;19;20149;-79
2023/10/12 08:14:54;;;;;;;5.72;3.55;;;19.70;99.90;;;;;;7391003;19;20154;-79
2023/10/12 08:17:33;;;;;;;3.35;2.33;;;19.70;99.90;;;;;;7395712;19;20161;-78
2023/10/12 08:22:46;;;;;;;3.38;2.30;;;19.80;99.90;;;;;;7393462;19;20147;-79
2023/10/12 08:25:14;;;;;;;4.88;3.25;;;19.70;99.90;;;;;;7397856;19;20131;-78
2023/10/12 08:27:52;;;;;;;15.98;7.45;;;19.70;99.90;;;;;;7397954;19;20139;-79
2023/10/12 08:30:48;;;;;;;5.40;2.80;;;19.80;99.90;;;;;;7401637;19;20163;-79
2023/10/12 08:33:14;;;;;;;2.70;1.65;;;19.80;99.90;;;;;;7394275;19;20174;-81
2023/10/12 08:36:23;;;;;;;1.92;1.05;;;19.90;99.90;;;;;;7392251;19;20154;-80
2023/10/12 08:38:33;;;;;;;2.90;2.00;;;20.00;99.90;;;;;;7394817;19;20134;-81
2023/10/12 08:43:48;;;;;;;4.22;2.50;;;20.00;99.90;;;;;;7391961;19;20167;-80
2023/10/12 08:46:37;;;;;;;3.40;2.30;;;20.00;99.90;;;;;;7391851;19;20142;-79
2023/10/12 08:49:33;;;;;;;2.85;2.15;;;20.00;99.90;;;;;;7393275;19;20238;-78
2023/10/12 08:54:37;;;;;;;2.78;2.00;;;20.00;99.90;;;;;;7399558;19;20126;-76
2023/10/12 08:57:55;;;;;;;3.58;1.38;;;20.00;99.90;;;;;;7394750;19;20135;-77
2023/10/12 09:03:24;;;;;;;2.42;1.40;;;20.10;99.90;;;;;;7388778;19;20206;-77
2023/10/12 09:05:51;;;;;;;2.55;1.35;;;20.00;99.90;;;;;;7389321;19;20178;-78
2023/10/12 09:11:03;;;;;;;3.38;1.88;;;20.00;99.90;;;;;;7391232;19;20145;-78
2023/10/12 09:13:34;;;;;;;3.28;1.88;;;20.00;99.90;;;;;;7391087;19;20477;-78
2023/10/12 09:16:02;;;;;;;8.50;4.65;;;20.00;99.90;;;;;;7392995;19;20140;-77
2023/10/12 09:18:33;;;;;;;3.08;2.30;;;20.00;99.90;;;;;;7390561;19;20143;-76
2023/10/12 09:23:31;;;;;;;2.58;1.70;;;20.10;99.90;;;;;;7389214;19;20210;-76
2023/10/12 09:36:43;;;;;;;2.45;2.10;;;20.20;99.90;;;;;;7389353;19;20133;-77
2023/10/12 09:39:17;;;;;;;2.53;1.58;;;20.20;99.90;;;;;;7390629;19;20130;-78
2023/10/12 09:41:54;;;;;;;5.60;2.08;;;20.20;99.90;;;;;;7393945;19;20135;-78
2023/10/12 09:44:26;;;;;;;11.80;6.07;;;20.30;99.90;;;;;;7389821;19;20257;-78
2023/10/12 09:46:57;;;;;;;4.40;2.67;;;20.30;99.90;;;;;;7391228;19;20170;-77
2023/10/12 09:49:29;;;;;;;2.53;1.88;;;20.30;99.90;;;;;;7391653;19;20140;-77
2023/10/12 09:52:01;;;;;;;3.97;2.20;;;20.40;99.90;;;;;;7394311;19;20870;-79
2023/10/12 09:54:45;;;;;;;3.25;1.85;;;20.30;99.90;;;;;;7395737;19;20135;-77
2023/10/12 09:57:26;;;;;;;2.80;1.48;;;20.40;99.90;;;;;;7389716;19;20564;-76
2023/10/12 09:59:53;;;;;;;2.00;1.67;;;20.40;99.90;;;;;;7388894;19;20166;-76
2023/10/12 10:02:30;;;;;;;2.90;2.00;;;20.50;99.90;;;;;;7392899;19;20137;-77
2023/10/12 10:05:27;;;;;;;2.97;1.92;;;20.50;99.90;;;;;;7388109;19;20146;-77
2023/10/12 10:07:58;;;;;;;2.65;1.77;;;20.60;99.90;;;;;;7389703;19;20138;-78
2023/10/12 10:10:31;;;;;;;2.15;1.70;;;20.50;99.90;;;;;;7390697;19;20245;-77
2023/10/12 10:13:08;;;;;;;1.63;1.30;;;20.40;99.90;;;;;;7389637;19;20134;-77
2023/10/12 10:15:55;;;;;;;1.70;1.25;;;20.40;99.90;;;;;;7390070;19;20159;-77
2023/10/12 10:18:28;;;;;;;2.88;1.60;;;20.40;99.90;;;;;;7392797;19;20155;-77
2023/10/12 10:21:05;;;;;;;1.95;1.38;;;20.50;99.90;;;;;;7389013;19;20210;-77
2023/10/12 10:23:37;;;;;;;1.45;1.30;;;20.50;99.90;;;;;;7391144;19;20618;-76
2023/10/12 10:26:34;;;;;;;2.15;1.23;;;20.60;99.90;;;;;;7387622;19;20477;-76
2023/10/12 10:29:17;;;;;;;1.95;1.30;;;20.70;99.90;;;;;;7390277;19;20143;-77
2023/10/12 10:31:51;;;;;;;4.25;1.40;;;20.60;99.90;;;;;;7390060;19;20138;-77
2023/10/12 10:34:26;;;;;;;1.55;1.35;;;20.70;99.90;;;;;;7392027;19;20152;-78
2023/10/12 10:36:53;;;;;;;1.70;1.30;;;20.80;99.90;;;;;;7390546;19;20150;-78
2023/10/12 10:44:21;;;;;;;2.60;1.58;;;20.80;99.90;;;;;;7389082;19;20149;-78
2023/10/12 10:46:54;;;;;;;2.42;1.80;;;20.80;99.90;;;;;;7391331;19;20154;-78
2023/10/12 10:49:21;;;;;;;1.88;1.40;;;20.80;99.90;;;;;;7390508;19;20138;-77
2023/10/12 10:54:33;;;;;;;1.77;1.30;;;20.90;99.90;;;;;;7391132;19;20587;-77
2023/10/12 10:57:02;;;;;;;4.35;1.30;;;20.90;99.90;;;;;;7391785;19;20131;-78
2023/10/12 10:59:30;;;;;;;2.28;1.45;;;20.90;99.90;;;;;;7391194;19;20158;-79
2023/10/12 11:01:59;;;;;;;1.95;1.45;;;21.00;99.90;;;;;;7389479;19;20143;-79
2023/10/12 11:07:03;;;;;;;2.83;1.52;;;20.90;99.90;;;;;;7387266;19;20590;-78
2023/10/12 11:12:16;;;;;;;2.70;1.60;;;21.10;99.90;;;;;;7391663;19;20467;-78
2023/10/12 11:14:58;;;;;;;1.90;1.30;;;21.10;99.90;;;;;;7386179;19;20644;-76
2023/10/12 11:17:35;;;;;;;1.40;1.27;;;21.20;99.90;;;;;;7387317;19;20632;-75
2023/10/12 11:20:08;;;;;;;1.65;1.35;;;21.30;99.90;;;;;;7386135;19;20142;-76
2023/10/12 11:22:42;;;;;;;2.00;1.55;;;21.20;99.90;;;;;;7389002;19;21003;-75
2023/10/12 11:25:15;;;;;;;4.07;1.48;;;21.30;99.90;;;;;;7387615;19;20145;-75
2023/10/12 11:27:42;;;;;;;2.25;1.50;;;21.30;99.90;;;;;;7382861;19;20146;-75
2023/10/12 11:30:12;;;;;;;1.45;1.25;;;21.30;99.90;;;;;;7387597;19;20138;-75
2023/10/12 11:32:53;;;;;;;1.80;1.58;;;21.30;99.90;;;;;;7388142;19;20123;-74
2023/10/12 11:35:32;;;;;;;2.47;1.88;;;21.30;99.90;;;;;;7386916;19;20154;-75
2023/10/12 11:37:58;;;;;;;2.63;1.90;;;21.40;99.90;;;;;;7385875;19;20134;-75
2023/10/12 11:40:31;;;;;;;3.35;1.85;;;21.50;99.90;;;;;;7386155;19;20135;-74
2023/10/12 11:42:57;;;;;;;2.45;1.88;;;21.50;99.90;;;;;;7384512;19;20142;-75
2023/10/12 11:45:32;;;;;;;1.95;1.25;;;21.50;99.90;;;;;;7386421;19;20130;-73
2023/10/12 11:48:16;;;;;;;3.63;2.47;;;21.50;99.90;;;;;;7386064;19;20168;-73
2023/10/12 11:50:45;;;;;;;3.15;1.70;;;21.60;99.90;;;;;;7385195;19;20146;-74
2023/10/12 11:53:15;;;;;;;2.00;1.60;;;21.60;99.90;;;;;;7384707;19;20134;-76
2023/10/12 11:55:40;;;;;;;1.60;1.20;;;21.70;99.90;;;;;;7386791;19;20131;-74
2023/10/12 11:58:13;;;;;;;2.22;1.88;;;22.00;99.90;;;;;;7386985;19;20144;-75
2023/10/12 12:00:44;;;;;;;1.70;1.23;;;22.00;99.90;;;;;;7387555;19;20138;-74
2023/10/12 12:03:10;;;;;;;2.47;1.60;;;21.90;99.90;;;;;;7384746;19;20194;-75
2023/10/12 12:05:37;;;;;;;3.72;1.30;;;21.90;99.90;;;;;;7384885;19;20616;-75
2023/10/12 12:08:07;;;;;;;3.70;1.50;;;22.00;99.90;;;;;;7386334;19;20134;-75
2023/10/12 12:13:09;;;;;;;1.77;1.33;;;21.90;99.90;;;;;;7386641;19;20146;-76
2023/10/12 12:15:44;;;;;;;2.53;1.55;;;21.90;99.90;;;;;;7385487;19;20230;-74
2023/10/12 12:20:44;;;;;;;2.75;1.70;;;21.80;99.90;;;;;;7392887;19;20142;-76
2023/10/12 12:23:10;;;;;;;2.63;1.98;;;21.90;99.90;;;;;;7391540;19;20977;-76
2023/10/12 12:25:39;;;;;;;4.93;2.60;;;21.80;99.90;;;;;;7392989;19;20134;-76
2023/10/12 12:28:14;;;;;;;3.03;1.80;;;21.90;99.90;;;;;;7391444;19;20243;-75
2023/10/12 12:30:51;;;;;;;2.28;1.42;;;21.90;99.90;;;;;;7395510;19;20803;-79
2023/10/12 12:33:19;;;;;;;3.67;1.80;;;21.80;99.90;;;;;;7395679;19;20127;-78
2023/10/12 12:36:12;;;;;;;2.72;1.77;;;21.80;99.90;;;;;;7395600;19;20134;-79
2023/10/12 12:41:05;;;;;;;2.58;1.48;;;21.60;99.90;;;;;;7394306;19;20162;-78
2023/10/12 12:43:35;;;;;;;3.30;2.03;;;21.60;99.90;;;;;;7392636;19;20135;-78
2023/10/12 12:46:01;;;;;;;1.95;1.63;;;21.50;99.90;;;;;;7394729;19;20134;-80
2023/10/12 12:48:26;;;;;;;2.80;1.80;;;21.60;99.90;;;;;;7394954;19;20194;-79
2023/10/12 12:50:52;;;;;;;3.08;2.13;;;21.60;99.90;;;;;;7394434;19;20159;-78
2023/10/12 12:53:21;;;;;;;3.22;2.10;;;21.50;99.90;;;;;;7393603;19;20131;-78
2023/10/12 12:55:47;;;;;;;2.85;1.65;;;21.50;99.90;;;;;;7390869;19;20135;-79
2023/10/12 12:58:17;;;;;;;3.80;1.65;;;21.50;99.90;;;;;;7392527;19;20134;-79
2023/10/12 13:00:46;;;;;;;2.25;1.52;;;21.50;99.90;;;;;;7396005;19;20130;-78
2023/10/12 13:03:13;;;;;;;2.10;1.35;;;21.40;99.90;;;;;;7391556;19;20143;-78
2023/10/12 13:05:42;;;;;;;1.58;1.15;;;21.40;99.90;;;;;;7393303;19;20584;-78
2023/10/12 13:08:11;;;;;;;2.05;1.67;;;21.30;99.90;;;;;;7393908;19;20155;-77
2023/10/12 13:10:39;;;;;;;2.22;1.75;;;21.20;99.90;;;;;;7397002;19;20134;-77
2023/10/12 13:13:06;;;;;;;2.65;1.58;;;21.20;99.90;;;;;;7393396;19;20619;-78
2023/10/12 13:15:32;;;;;;;2.20;1.60;;;21.30;99.90;;;;;;7396171;19;20139;-78
2023/10/12 13:17:59;;;;;;;2.67;1.48;;;21.40;99.90;;;;;;7394129;19;20138;-78
2023/10/12 13:20:30;;;;;;;1.83;1.50;;;21.40;99.90;;;;;;7394988;19;20595;-77
2023/10/12 13:22:56;;;;;;;1.67;1.02;;;21.40;99.90;;;;;;7392566;19;20188;-77
2023/10/12 13:25:25;;;;;;;1.35;1.10;;;21.60;99.90;;;;;;7392112;19;20134;-78
2023/10/12 13:27:52;;;;;;;2.08;1.65;;;21.50;99.90;;;;;;7393372;19;20151;-76
2023/10/12 13:30:18;;;;;;;2.78;1.58;;;21.50;99.90;;;;;;7393492;19;20142;-77
2023/10/12 13:32:52;;;;;;;1.73;1.52;;;21.60;99.90;;;;;;7391317;19;20266;-76
2023/10/12 13:35:18;;;;;;;1.67;1.20;;;21.60;99.90;;;;;;7393534;19;20151;-78
2023/10/12 13:37:47;;;;;;;1.80;1.30;;;21.50;99.90;;;;;;7393307;19;20131;-78
2023/10/12 13:40:16;;;;;;;2.63;1.50;;;21.60;99.90;;;;;;7393027;19;20570;-77
2023/10/12 13:42:43;;;;;;;2.88;1.90;;;21.60;99.90;;;;;;7392018;19;20586;-77
2023/10/12 13:45:12;;;;;;;2.75;1.88;;;21.70;99.90;;;;;;7393325;19;20150;-77
2023/10/12 13:47:40;;;;;;;2.38;1.88;;;21.70;99.90;;;;;;7393543;19;20150;-77
2023/10/12 13:50:10;;;;;;;3.35;1.80;;;21.60;99.90;;;;;;7393080;19;20138;-79
2023/10/12 13:52:40;;;;;;;5.05;2.05;;;21.50;99.90;;;;;;7394352;19;20150;-76
2023/10/12 13:55:11;;;;;;;2.78;1.90;;;21.60;99.90;;;;;;7391976;19;20154;-77
2023/10/12 13:57:50;;;;;;;3.45;1.70;;;21.50;99.90;;;;;;7394014;19;20134;-78
2023/10/12 14:00:25;;;;;;;3.08;1.60;;;21.60;99.90;;;;;;7392715;19;20134;-78
2023/10/12 14:02:58;;;;;;;2.50;1.98;;;21.50;99.90;;;;;;7390754;19;20144;-77
2023/10/12 14:05:27;;;;;;;2.17;1.70;;;21.60;99.90;;;;;;7388967;19;20170;-78
2023/10/12 14:07:59;;;;;;;2.45;1.63;;;21.60;99.90;;;;;;7391121;19;20210;-78
2023/10/12 14:10:29;;;;;;;2.40;1.30;;;21.50;99.90;;;;;;7393574;19;20231;-77
2023/10/12 14:12:56;;;;;;;3.78;2.10;;;21.60;99.90;;;;;;7393831;19;20201;-77
2023/10/12 14:15:29;;;;;;;1.95;1.70;;;21.70;99.90;;;;;;7392609;19;20135;-78
2023/10/12 14:17:56;;;;;;;2.15;1.33;;;21.90;99.90;;;;;;7392182;19;20639;-77
2023/10/12 14:20:32;;;;;;;2.33;1.60;;;21.80;99.90;;;;;;7392895;19;20720;-78
2023/10/12 14:23:05;;;;;;;1.90;1.60;;;21.70;99.90;;;;;;7390514;19;20639;-77
2023/10/12 14:25:42;;;;;;;1.92;1.70;;;21.60;99.90;;;;;;7391979;19;20482;-77
2023/10/12 14:28:09;;;;;;;3.17;1.55;;;21.60;99.90;;;;;;7391896;19;20295;-79
2023/10/12 14:30:36;;;;;;;2.45;1.90;;;21.60;99.90;;;;;;7394200;19;20135;-79
2023/10/12 14:33:03;;;;;;;4.45;2.10;;;21.60;99.90;;;;;;7392006;19;20154;-78
2023/10/12 14:35:37;;;;;;;2.78;1.92;;;21.60;99.90;;;;;;7390213;19;20154;-77
2023/10/12 14:38:07;;;;;;;2.85;1.92;;;21.60;99.90;;;;;;7390288;19;20158;-76
2023/10/12 14:40:35;;;;;;;3.30;1.85;;;21.70;99.90;;;;;;7387638;19;20126;-76
2023/10/12 14:43:10;;;;;;;2.60;1.55;;;21.60;99.90;;;;;;7387935;19;20181;-75
2023/10/12 14:45:48;;;;;;;3.92;2.00;;;21.60;99.90;;;;;;7389365;19;20221;-75
2023/10/12 14:48:17;;;;;;;4.30;2.45;;;21.70;99.90;;;;;;7390589;19;20189;-76
2023/10/12 14:50:49;;;;;;;2.35;1.25;;;21.90;99.90;;;;;;7389863;19;20161;-75
2023/10/12 14:53:21;;;;;;;3.38;1.70;;;21.90;99.90;;;;;;7390870;19;20146;-75
2023/10/12 14:55:51;;;;;;;3.13;1.58;;;22.00;99.90;;;;;;7390016;19;20135;-76
2023/10/12 14:58:21;;;;;;;2.72;1.65;;;21.90;99.90;;;;;;7392016;19;20143;-77
2023/10/12 15:00:47;;;;;;;3.00;1.85;;;22.00;99.90;;;;;;7386349;19;20173;-76
2023/10/12 15:03:21;;;;;;;2.42;1.73;;;21.90;99.90;;;;;;7386175;19;20592;-76
2023/10/12 15:05:53;;;;;;;2.88;2.28;;;21.80;99.90;;;;;;7386475;19;20181;-78
2023/10/12 15:08:26;;;;;;;6.70;2.25;;;21.70;99.90;;;;;;7392510;19;20168;-76
2023/10/12 15:10:56;;;;;;;3.83;2.80;;;21.70;99.90;;;;;;7389505;19;20641;-77
2023/10/12 15:13:25;;;;;;;2.35;1.92;;;21.60;99.90;;;;;;7388172;19;20138;-76
2023/10/12 15:15:53;;;;;;;1.60;1.35;;;21.60;99.90;;;;;;7386997;19;20131;-76
2023/10/12 15:18:23;;;;;;;2.38;1.73;;;21.70;99.90;;;;;;7385901;19;20142;-77
2023/10/12 15:20:52;;;;;;;3.85;1.98;;;21.60;99.90;;;;;;7388891;19;20201;-75
2023/10/12 15:23:21;;;;;;;3.38;2.10;;;21.60;99.90;;;;;;7385449;19;20618;-76
2023/10/12 15:25:48;;;;;;;3.88;2.42;;;21.50;99.90;;;;;;7386727;19;20169;-75
2023/10/12 15:28:15;;;;;;;4.40;2.00;;;21.50;99.90;;;;;;7384755;19;20631;-76
2023/10/12 15:30:45;;;;;;;3.88;2.13;;;21.50;99.90;;;;;;7387630;19;20141;-75
2023/10/12 15:33:11;;;;;;;3.65;2.30;;;21.50;99.90;;;;;;7386434;19;20213;-74
2023/10/12 15:35:37;;;;;;;3.47;2.65;;;21.40;99.90;;;;;;7386084;19;20533;-77
2023/10/12 15:38:03;;;;;;;3.55;2.47;;;21.40;99.90;;;;;;7387547;19;20131;-75